Time;durP1;ratioP1;P1;durP2;ratioP2;P2;SDS_P1;SDS_P2;PMS_P1;PMS_P2;Temp;Humidity;BMP_temperature;BMP_pressure;BME280_temperature;BME280_humidity;BME280_pressure;Samples;Min_cycle;Max_cycle;Signal;HPM_P1;HPM_P2
2024/01/05 00:00:29;;;;;;;;;;;;;;;;;;;;;
2024/01/05 00:03:23;;;;;;;;;17.50;16.75;;;;;9.94;68.09;100914.44;146609;609;46016;-80
2024/01/05 00:06:22;;;;;;;;;17.25;16.50;;;;;9.91;68.20;100916.88;146612;606;46021;-81
2024/01/05 00:09:14;;;;;;;;;33.50;28.25;;;;;9.90;68.40;100921.94;146608;576;46014;-78
2024/01/05 00:12:15;;;;;;;;;42.50;33.00;;;;;9.93;67.97;100923.00;146612;582;47010;-78
2024/01/05 00:15:27;;;;;;;;;27.00;21.00;;;;;9.98;67.39;100927.56;146609;623;47016;-78
2024/01/05 00:18:19;;;;;;;;;19.75;16.00;;;;;9.98;68.23;100930.16;146612;565;47010;-76
2024/01/05 00:21:12;;;;;;;;;37.00;31.00;;;;;10.00;67.79;100932.03;146611;605;46034;-81
2024/01/05 00:24:16;;;;;;;;;29.50;28.25;;;;;9.14;66.80;100784.72;146613;612;46029;-81
2024/01/05 00:27:08;;;;;;;;;13.00;12.75;;;;;10.04;67.88;100940.88;146612;576;46012;-81
2024/01/05 00:30:05;;;;;;;;;26.00;20.75;;;;;10.04;67.39;100943.47;146611;632;47010;-79
2024/01/05 00:33:00;;;;;;;;;14.50;11.00;;;;;10.10;67.75;100949.88;146609;563;46012;-82
2024/01/05 00:35:55;;;;;;;;;25.25;23.50;;;;;10.07;67.37;100959.19;146612;578;46020;-81
2024/01/05 00:39:01;;;;;;;;;16.75;14.50;;;;;10.02;67.29;100968.38;146607;688;47016;-78
2024/01/05 00:41:53;;;;;;;;;19.75;17.00;;;;;9.95;66.96;100960.25;146609;576;46011;-75
2024/01/05 00:44:45;;;;;;;;;14.25;12.75;;;;;9.89;67.70;100965.09;146609;604;48012;-75
2024/01/05 00:47:44;;;;;;;;;15.75;14.50;;;;;9.77;67.55;100955.72;146610;605;47012;-78
2024/01/05 00:50:49;;;;;;;;;21.25;19.50;;;;;9.73;67.81;100964.12;146611;689;46014;-80
2024/01/05 00:53:50;;;;;;;;;16.25;14.75;;;;;9.61;67.74;100972.94;146613;593;47010;-75
2024/01/05 00:56:47;;;;;;;;;23.00;21.75;;;;;9.55;68.47;100974.28;146608;628;47016;-77
2024/01/05 00:59:55;;;;;;;;;;;;;;;;;;;;;
2024/01/05 01:02:50;;;;;;;;;14.00;11.50;;;;;9.48;69.04;100979.09;146610;608;46018;-77
2024/01/05 01:05:58;;;;;;;;;28.50;27.50;;;;;9.44;68.50;100984.91;146613;623;46021;-77
2024/01/05 01:08:50;;;;;;;;;14.75;11.00;;;;;9.41;68.12;100994.19;146611;730;46032;-76
2024/01/05 01:11:50;;;;;;;;;11.50;11.00;;;;;9.40;68.69;100989.78;146612;592;47010;-76
2024/01/05 01:14:53;;;;;;;;;12.75;10.00;;;;;9.33;69.04;100991.12;146608;670;47012;-76
2024/01/05 01:17:45;;;;;;;;;13.75;13.00;;;;;9.31;69.01;100986.63;146610;566;47010;-76
2024/01/05 01:20:38;;;;;;;;;10.00;10.00;;;;;9.28;68.78;100991.62;146611;587;46014;-71
2024/01/05 01:23:39;;;;;;;;;19.00;15.75;;;;;9.26;68.66;100988.97;146614;571;46020;-73
2024/01/05 01:26:38;;;;;;;;;20.00;19.25;;;;;9.27;68.94;100982.09;146608;579;46016;-72
2024/01/05 01:29:33;;;;;;;;;16.00;13.75;;;;;9.30;68.96;100979.69;146612;590;46020;-72
2024/01/05 01:32:37;;;;;;;;;22.50;19.00;;;;;9.27;69.22;100979.50;146605;592;46015;-73
2024/01/05 01:35:32;;;;;;;;;15.00;13.25;;;;;9.22;68.21;100987.91;146614;607;46010;-72
2024/01/05 01:38:36;;;;;;;;;7.50;6.50;;;;;9.24;68.15;100983.69;146613;631;46016;-72
2024/01/05 01:41:28;;;;;;;;;38.00;31.00;;;;;9.31;68.19;100994.41;146620;672;45021;-72
2024/01/05 01:44:24;;;;;;;;;26.00;23.75;;;;;9.34;67.94;100992.87;146609;580;47016;-72
2024/01/05 01:47:29;;;;;;;;;10.25;9.25;;;;;9.32;67.51;100991.03;146613;612;46020;-72
2024/01/05 01:50:24;;;;;;;;;45.75;34.75;;;;;9.30;67.71;100988.34;146616;596;46915;-75
2024/01/05 01:53:21;;;;;;;;;18.25;17.00;;;;;9.25;67.65;100993.25;146613;603;46020;-75
2024/01/05 01:56:17;;;;;;;;;15.25;12.75;;;;;9.17;68.41;100985.81;146608;774;47017;-76
2024/01/05 01:59:11;;;;;;;;;16.75;13.25;;;;;9.10;68.20;100988.84;146612;607;46020;-76
2024/01/05 02:02:14;;;;;;;;;14.00;11.50;;;;;9.06;68.87;100995.50;146610;615;47012;-76
2024/01/05 02:05:13;;;;;;;;;15.75;12.75;;;;;9.06;69.65;100992.03;146614;571;46020;-73
2024/01/05 02:08:11;;;;;;;;;18.50;16.00;;;;;9.04;69.39;100989.34;146609;598;46016;-74
2024/01/05 02:11:11;;;;;;;;;28.75;24.75;;;;;9.02;68.87;100990.94;146611;655;47010;-74
2024/01/05 02:14:07;;;;;;;;;13.00;12.25;;;;;9.06;69.14;100997.19;146612;595;46016;-75
2024/01/05 02:17:06;;;;;;;;;15.00;13.00;;;;;9.09;69.36;101000.84;146612;603;46010;-77
2024/01/05 02:20:12;;;;;;;;;20.75;17.00;;;;;9.08;68.75;101001.66;146609;591;46012;-75
2024/01/05 02:23:08;;;;;;;;;14.00;12.50;;;;;9.04;68.95;101004.88;146612;570;46010;-75
2024/01/05 02:26:05;;;;;;;;;17.75;16.75;;;;;9.02;69.25;101006.47;146611;599;46017;-75
2024/01/05 02:28:57;;;;;;;;;20.25;18.75;;;;;9.05;68.90;101010.94;146613;563;46010;-79
2024/01/05 02:31:52;;;;;;;;;9.75;8.00;;;;;9.01;69.12;101007.28;146613;590;46016;-75
2024/01/05 02:34:44;;;;;;;;;14.75;13.50;;;;;9.02;69.33;101009.03;146623;594;46010;-75
2024/01/05 02:37:36;;;;;;;;;23.25;21.00;;;;;9.04;68.75;101009.16;146609;584;46945;-75
2024/01/05 02:40:40;;;;;;;;;9.50;6.25;;;;;9.05;68.91;101006.66;146614;613;46020;-75
2024/01/05 02:43:33;;;;;;;;;9.50;8.00;;;;;9.07;68.13;101009.34;146616;595;46016;-75
2024/01/05 02:46:32;;;;;;;;;9.00;8.50;;;;;9.09;68.09;101012.91;146619;592;46020;-77
2024/01/05 02:49:30;;;;;;;;;8.00;8.00;;;;;9.08;68.65;101006.84;146617;581;46016;-76
2024/01/05 02:52:27;;;;;;;;;5.00;4.25;;;;;9.07;68.00;101011.94;146623;577;46020;-75
2024/01/05 02:55:20;;;;;;;;;6.25;5.25;;;;;9.04;68.79;101011.75;146615;645;47013;-73
2024/01/05 02:58:15;;;;;;;;;8.75;6.25;;;;;9.00;67.83;101011.56;146620;589;46010;-73
2024/01/05 03:01:19;;;;;;;;;7.75;6.50;;;;;9.01;67.39;101012.44;146617;580;47012;-75
2024/01/05 03:04:11;;;;;;;;;23.00;18.00;;;;;9.05;68.05;101016.09;146620;566;46010;-75
2024/01/05 03:07:09;;;;;;;;;13.25;13.25;;;;;9.06;67.61;101017.88;146610;611;46016;-76
2024/01/05 03:10:15;;;;;;;;;9.25;9.00;;;;;9.05;67.33;101029.94;146612;651;46011;-76
2024/01/05 03:13:12;;;;;;;;;45.25;36.75;;;;;8.98;67.40;101020.00;146614;616;47021;-76
2024/01/05 03:16:03;;;;;;;;;5.75;5.75;;;;;8.90;67.87;101022.09;146612;603;46010;-75
2024/01/05 03:18:57;;;;;;;;;19.75;17.00;;;;;8.83;67.73;101025.12;146617;632;46017;-75
2024/01/05 03:21:49;;;;;;;;;11.75;10.50;;;;;8.77;68.28;101035.97;146611;590;47010;-76
2024/01/05 03:24:50;;;;;;;;;8.25;6.00;;;;;8.72;68.42;101034.78;146613;676;46014;-75
2024/01/05 03:27:42;;;;;;;;;4.00;4.00;;;;;8.67;69.17;101035.28;146625;642;47010;-75
2024/01/05 03:30:37;;;;;;;;;5.25;5.00;;;;;8.65;69.31;101032.59;146615;604;46015;-74
2024/01/05 03:33:34;;;;;;;;;4.00;4.00;;;;;8.72;69.02;101036.47;146619;571;46010;-73
2024/01/05 03:36:28;;;;;;;;;4.00;3.50;;;;;8.78;68.95;101036.84;146614;612;47016;-74
2024/01/05 03:39:23;;;;;;;;;4.25;4.00;;;;;8.82;68.40;101043.13;146622;659;46012;-73
2024/01/05 03:42:15;;;;;;;;;7.50;6.25;;;;;8.86;68.91;101051.16;146615;609;48016;-73
2024/01/05 03:45:11;;;;;;;;;6.00;4.50;;;;;8.95;68.04;101041.41;146619;624;46020;-72
2024/01/05 03:48:16;;;;;;;;;5.50;3.50;;;;;8.99;67.69;101045.06;146617;619;46016;-73
2024/01/05 03:51:14;;;;;;;;;11.25;8.25;;;;;9.09;67.64;101055.19;146617;594;47010;-70
2024/01/05 03:54:30;;;;;;;;;25.75;25.25;;;;;7.50;66.03;100759.22;146616;571;47012;-70
2024/01/05 03:57:26;;;;;;;;;16.75;16.75;;;;;9.21;66.86;101044.69;146613;625;47010;-71
2024/01/05 04:00:25;;;;;;;;;10.25;9.25;;;;;9.16;66.80;101049.59;146610;602;47012;-71
2024/01/05 04:03:33;;;;;;;;;15.50;12.75;;;;;9.06;66.82;101046.34;146617;592;47020;-72
2024/01/05 04:06:48;;;;;;;;;;;;;;;;;;;;;
2024/01/05 04:09:49;;;;;;;;;6.50;5.75;;;;;8.87;67.07;101058.13;146620;570;47012;-71
2024/01/05 04:12:45;;;;;;;;;5.50;5.50;;;;;8.83;67.83;101056.12;146620;565;46016;-72
2024/01/05 04:15:45;;;;;;;;;6.00;5.00;;;;;8.79;67.33;101055.06;146623;606;46011;-73
2024/01/05 04:18:47;;;;;;;;;3.50;2.50;;;;;8.76;67.90;101065.19;146616;572;46016;-71
2024/01/05 04:21:42;;;;;;;;;3.50;3.50;;;;;8.75;67.48;101071.19;146618;569;46010;-71
2024/01/05 04:24:43;;;;;;;;;6.00;5.75;;;;;8.76;66.73;101069.50;146616;591;46016;-70
2024/01/05 04:27:34;;;;;;;;;4.00;4.00;;;;;8.79;67.01;101085.19;146623;624;46010;-71
2024/01/05 04:30:49;;;;;;;;;;;;;;;;;;;;;
2024/01/05 04:33:45;;;;;;;;;9.25;9.25;;;;;8.91;66.01;101080.81;146620;592;46020;-71
2024/01/05 04:36:50;;;;;;;;;16.50;15.25;;;;;8.89;65.48;101086.69;146618;597;46033;-73
2024/01/05 04:39:43;;;;;;;;;20.00;17.00;;;;;8.85;65.77;101095.94;146611;584;47010;-72
2024/01/05 04:42:38;;;;;;;;;17.50;16.00;;;;;8.81;65.58;101098.22;146603;757;46016;-72
2024/01/05 04:45:33;;;;;;;;;6.75;6.00;;;;;8.72;65.76;101103.66;146608;601;46010;-71
2024/01/05 04:48:25;;;;;;;;;16.25;14.75;;;;;8.62;65.86;101099.59;146607;575;46016;-72
2024/01/05 04:51:20;;;;;;;;;11.50;11.25;;;;;8.59;66.17;101096.81;146602;636;46010;-71
2024/01/05 04:54:24;;;;;;;;;16.50;13.00;;;;;8.54;66.04;101109.47;146605;671;46017;-69
2024/01/05 04:57:20;;;;;;;;;9.25;9.25;;;;;8.50;66.65;101110.06;146606;673;47010;-71
2024/01/05 05:00:20;;;;;;;;;7.50;7.25;;;;;8.39;66.69;101110.16;146610;620;47013;-72
2024/01/05 05:03:25;;;;;;;;;7.25;6.00;;;;;8.30;67.09;101118.13;146616;600;46020;-72
2024/01/05 05:06:28;;;;;;;;;7.75;6.50;;;;;8.27;66.76;101113.66;146610;589;46016;-73
2024/01/05 05:09:22;;;;;;;;;66.75;52.00;;;;;8.27;67.31;101120.53;146608;599;47021;-74
2024/01/05 05:12:16;;;;;;;;;14.75;14.75;;;;;8.26;67.17;101129.06;146604;667;46012;-73
2024/01/05 05:15:11;;;;;;;;;11.75;9.00;;;;;8.24;67.54;101120.31;146605;619;48010;-74
2024/01/05 05:18:06;;;;;;;;;12.75;12.50;;;;;8.24;67.38;101123.78;146605;645;46016;-73
2024/01/05 05:21:09;;;;;;;;;7.00;5.00;;;;;8.25;67.40;101124.69;146603;582;46021;-72
2024/01/05 05:24:04;;;;;;;;;5.00;3.75;;;;;8.25;67.56;101128.16;146610;569;47012;-71
2024/01/05 05:26:58;;;;;;;;;9.25;8.00;;;;;8.30;67.44;101134.53;146611;573;47010;-72
2024/01/05 05:29:57;;;;;;;;;16.00;15.00;;;;;8.37;66.94;101129.78;146607;594;47012;-71
2024/01/05 05:33:05;;;;;;;;;;;;;;;;;;;;;
2024/01/05 05:35:58;;;;;;;;;16.00;15.50;;;;;8.37;67.04;101141.00;146605;609;46027;-83
2024/01/05 05:38:57;;;;;;;;;19.00;15.25;;;;;8.29;67.56;101148.25;146607;599;46021;-87
2024/01/05 05:42:01;;;;;;;;;19.50;13.25;;;;;8.20;67.62;101146.75;146605;602;46027;-83
2024/01/05 05:44:53;;;;;;;;;8.00;8.00;;;;;8.09;67.75;101159.81;146607;564;47010;-83
2024/01/05 05:47:48;;;;;;;;;8.75;6.75;;;;;8.07;67.67;101168.28;146611;579;47917;-84
2024/01/05 05:50:45;;;;;;;;;15.50;12.75;;;;;8.10;67.92;101173.66;146607;593;47010;-82
2024/01/05 05:53:46;;;;;;;;;10.75;9.75;;;;;8.08;68.27;101175.22;146604;588;46014;-78
2024/01/05 05:56:40;;;;;;;;;19.00;15.00;;;;;8.00;68.96;101168.63;146615;602;46010;-77
2024/01/05 05:59:42;;;;;;;;;13.25;11.00;;;;;7.90;68.67;101166.22;146598;580;47918;-78
2024/01/05 06:02:34;;;;;;;;;15.00;10.50;;;;;7.81;69.86;101172.50;146609;572;46020;-77
2024/01/05 06:05:37;;;;;;;;;12.50;11.25;;;;;7.80;69.98;101170.72;146604;594;46016;-75
2024/01/05 06:08:30;;;;;;;;;15.25;13.75;;;;;7.85;70.11;101171.97;146609;600;46021;-75
2024/01/05 06:11:26;;;;;;;;;11.25;10.25;;;;;7.92;70.10;101177.53;146602;573;47012;-80
2024/01/05 06:14:19;;;;;;;;;11.00;9.75;;;;;7.96;69.77;101172.69;146606;578;46012;-79
2024/01/05 06:17:20;;;;;;;;;18.00;13.75;;;;;8.03;69.18;101174.00;146608;576;47917;-84
2024/01/05 06:20:17;;;;;;;;;20.25;19.00;;;;;8.06;69.99;101172.50;146600;605;46020;-84
2024/01/05 06:23:11;;;;;;;;;14.00;13.25;;;;;8.13;70.03;101173.84;146603;576;47946;-83
2024/01/05 06:26:20;;;;;;;;;172.25;132.50;;;;;8.17;69.14;101173.25;146612;622;46030;-84
2024/01/05 06:29:16;;;;;;;;;291.50;233.25;;;;;8.22;69.47;101183.88;146614;595;46037;-86
2024/01/05 06:32:13;;;;;;;;;33.50;31.00;;;;;8.28;69.35;101192.94;146613;569;46010;-87
2024/01/05 06:35:20;;;;;;;;;70.25;55.00;;;;;8.41;68.82;101193.81;146603;571;46012;-85
2024/01/05 06:38:20;;;;;;;;;33.75;29.50;;;;;8.52;69.26;101198.03;146605;614;47010;-84
2024/01/05 06:41:12;;;;;;;;;42.75;35.50;;;;;8.83;71.25;101205.22;146602;584;48016;-85
2024/01/05 06:44:14;;;;;;;;;10.75;10.25;;;;;9.34;70.51;101191.28;146608;736;46021;-86
2024/01/05 06:47:09;;;;;;;;;9.00;8.25;;;;;10.22;69.99;101189.78;146604;601;46012;-87
2024/01/05 06:50:01;;;;;;;;;22.50;18.25;;;;;10.99;63.96;101185.72;146600;599;47044;-88
2024/01/05 06:52:52;;;;;;;;;16.75;14.25;;;;;11.50;62.83;101194.62;146605;602;47012;-89
2024/01/05 06:55:44;;;;;;;;;28.50;23.00;;;;;11.90;61.53;101189.03;146607;595;46020;-84
2024/01/05 06:58:41;;;;;;;;;16.25;14.75;;;;;12.13;60.00;101191.94;146604;570;46017;-84
2024/01/05 07:01:34;;;;;;;;;17.25;15.25;;;;;12.15;59.63;101195.50;146605;589;47010;-75
2024/01/05 07:04:26;;;;;;;;;14.50;14.50;;;;;12.09;59.81;101185.69;146600;727;47012;-74
2024/01/05 07:07:20;;;;;;;;;16.75;16.00;;;;;12.00;59.95;101190.41;146607;601;46021;-75
2024/01/05 07:10:14;;;;;;;;;19.75;18.50;;;;;11.95;60.44;101194.47;146604;593;46016;-75
2024/01/05 07:13:18;;;;;;;;;25.50;20.50;;;;;11.89;60.21;101199.34;146605;565;46010;-74
2024/01/05 07:16:31;;;;;;;;;42.50;33.00;;;;;11.80;59.92;101210.09;146600;574;47012;-77
2024/01/05 07:19:41;;;;;;;;;35.00;30.00;;;;;11.76;60.93;101213.34;146601;663;46020;-78
2024/01/05 07:22:44;;;;;;;;;35.50;31.75;;;;;11.80;62.38;101217.88;146607;631;46016;-80
2024/01/05 07:25:42;;;;;;;;;60.00;44.75;;;;;11.96;61.79;101219.63;146607;690;48020;-80
2024/01/05 07:28:45;;;;;;;;;45.00;35.75;;;;;12.38;59.66;101217.50;146604;618;46016;-85
2024/01/05 07:31:39;;;;;;;;;38.75;31.50;;;;;12.76;58.59;101223.78;146606;630;47012;-83
2024/01/05 07:34:42;;;;;;;;;35.50;30.00;;;;;12.95;57.92;101223.87;146606;612;46016;-75
2024/01/05 07:37:38;;;;;;;;;39.50;31.25;;;;;13.08;59.89;101227.97;146608;618;46021;-73
2024/01/05 07:40:38;;;;;;;;;37.75;32.25;;;;;13.31;60.20;101229.13;146604;593;47016;-73
2024/01/05 07:43:33;;;;;;;;;160.50;140.50;;;;;13.72;59.91;101223.25;146621;567;46020;-73
2024/01/05 07:46:40;;;;;;;;;;;;;;;;;;;;;
2024/01/05 07:49:38;;;;;;;;;16.00;13.75;;;;;14.96;54.82;101217.41;146610;596;46021;-73
2024/01/05 07:52:42;;;;;;;;;20.00;17.25;;;;;15.40;53.83;101228.75;146610;565;46016;-72
2024/01/05 07:55:37;;;;;;;;;14.75;12.75;;;;;15.67;51.85;101216.81;146617;603;46010;-73
2024/01/05 07:58:28;;;;;;;;;42.75;34.00;;;;;15.76;51.95;101211.00;146614;619;48012;-73
2024/01/05 08:01:27;;;;;;;;;21.50;18.50;;;;;15.69;51.95;101224.69;146617;563;46020;-74
2024/01/05 08:04:20;;;;;;;;;23.25;19.75;;;;;15.51;51.95;101222.22;146615;569;46016;-72
2024/01/05 08:07:23;;;;;;;;;28.00;23.00;;;;;15.46;52.41;101215.94;146613;570;47012;-75
2024/01/05 08:10:36;;;;;;;;;;;;;;;;;;;;;
2024/01/05 08:13:30;;;;;;;;;21.00;20.00;;;;;15.74;51.69;101230.13;146613;592;46021;-74
2024/01/05 08:16:25;;;;;;;;;25.50;22.25;;;;;15.80;52.15;101238.19;146617;631;46012;-74
2024/01/05 08:19:20;;;;;;;;;17.50;15.50;;;;;15.84;52.15;101233.13;146603;605;46020;-73
2024/01/05 08:22:25;;;;;;;;;14.50;14.25;;;;;15.96;50.23;101229.22;146613;633;46013;-75
2024/01/05 08:25:21;;;;;;;;;14.50;9.75;;;;;16.10;50.69;101228.84;146617;608;46012;-72
2024/01/05 08:28:19;;;;;;;;;22.75;20.00;;;;;16.28;50.94;101218.19;146617;614;47016;-69
2024/01/05 08:31:15;;;;;;;;;20.25;16.50;;;;;16.51;51.07;101219.00;146609;573;47020;-77
2024/01/05 08:34:12;;;;;;;;;17.50;17.00;;;;;16.70;51.34;101232.72;146607;626;47012;-76
2024/01/05 08:37:09;;;;;;;;;15.25;13.50;;;;;16.87;51.58;101234.22;146619;574;46010;-76
2024/01/05 08:40:03;;;;;;;;;16.00;16.00;;;;;17.11;51.21;101234.16;146615;569;46034;-75
2024/01/05 08:43:09;;;;;;;;;19.00;17.75;;;;;17.38;51.43;101226.25;146607;571;46028;-75
2024/01/05 08:46:07;;;;;;;;;19.50;18.50;;;;;17.66;51.38;101222.78;146599;570;48012;-76
2024/01/05 08:49:04;;;;;;;;;25.75;19.00;;;;;17.92;50.82;101227.97;146599;586;47020;-77
2024/01/05 08:52:05;;;;;;;;;24.50;21.25;;;;;18.10;54.30;101228.50;146601;584;47012;-76
2024/01/05 08:55:03;;;;;;;;;23.00;21.50;;;;;18.20;53.33;101237.50;146606;619;47020;-75
2024/01/05 08:58:00;;;;;;;;;22.75;18.75;;;;;18.20;54.30;101229.63;146601;606;46017;-76
2024/01/05 09:00:57;;;;;;;;;19.00;18.00;;;;;18.24;48.83;101242.00;146608;599;46020;-75
2024/01/05 09:03:49;;;;;;;;;24.00;22.00;;;;;18.30;50.42;101246.53;146602;571;47012;-76
2024/01/05 09:06:53;;;;;;;;;21.75;16.00;;;;;18.34;48.17;101241.41;146606;615;47010;-77
2024/01/05 09:10:00;;;;;;;;;18.75;17.00;;;;;16.68;48.82;100969.94;146602;582;47920;-76
2024/01/05 09:13:03;;;;;;;;;22.00;18.25;;;;;18.21;49.00;101245.41;146608;618;46021;-75
2024/01/05 09:15:58;;;;;;;;;17.25;17.00;;;;;18.20;48.88;101254.16;146603;656;47012;-75
2024/01/05 09:19:03;;;;;;;;;25.75;21.00;;;;;18.15;49.12;101245.25;146601;565;46010;-76
2024/01/05 09:21:59;;;;;;;;;11.33;8.67;;;;;18.06;53.03;101244.09;146603;657;49014;-76
2024/01/05 09:25:04;;;;;;;;;14.50;13.00;;;;;17.95;52.96;101254.28;146614;634;47010;-75
2024/01/05 09:27:56;;;;;;;;;14.00;11.50;;;;;17.86;54.55;101251.38;146601;565;47013;-75
2024/01/05 09:30:52;;;;;;;;;19.00;11.00;;;;;17.82;55.04;101257.34;146606;619;46010;-75
2024/01/05 09:33:49;;;;;;;;;11.67;9.67;;;;;17.84;55.10;101248.69;146606;577;46017;-75
2024/01/05 09:36:51;;;;;;;;;9.00;8.00;;;;;17.96;55.20;101256.94;146617;601;46020;-76
2024/01/05 09:40:02;;;;;;;;;;;;;;;;;;;;;
2024/01/05 09:43:12;;;;;;;;;10.67;9.67;;;;;18.26;52.07;101242.06;146605;734;46021;-77
2024/01/05 09:46:10;;;;;;;;;7.00;7.00;;;;;18.31;53.90;101235.16;146610;626;46012;-76
2024/01/05 09:49:03;;;;;;;;;12.33;10.67;;;;;18.33;51.44;101230.88;146606;581;46021;-75
2024/01/05 09:52:05;;;;;;;;;15.00;14.75;;;;;18.36;52.43;101223.06;146605;600;46016;-76
2024/01/05 09:55:10;;;;;;;;;16.75;12.50;;;;;18.36;51.39;101226.59;146607;635;46020;-77
2024/01/05 09:58:05;;;;;;;;;16.00;13.75;;;;;18.43;52.07;101227.63;146604;627;46014;-75
2024/01/05 10:01:08;;;;;;;;;13.50;11.75;;;;;18.50;52.01;101228.69;146606;589;46020;-77
2024/01/05 10:04:06;;;;;;;;;12.75;11.00;;;;;18.46;51.35;101214.59;146604;593;46013;-76
2024/01/05 10:07:07;;;;;;;;;17.50;15.25;;;;;18.43;51.63;101211.88;146606;584;46020;-77
2024/01/05 10:09:59;;;;;;;;;19.25;18.25;;;;;18.41;51.49;101217.09;146600;608;47014;-75
2024/01/05 10:13:00;;;;;;;;;17.00;15.75;;;;;18.41;52.30;101205.69;146602;605;47010;-77
2024/01/05 10:16:05;;;;;;;;;15.25;14.50;;;;;18.43;52.07;101197.00;146602;595;46037;-74
2024/01/05 10:19:16;;;;;;;;;17.33;13.33;;;;;18.48;47.70;101191.00;146602;587;46010;-74
2024/01/05 10:22:19;;;;;;;;;15.75;13.50;;;;;18.44;51.33;101169.00;146598;565;47016;-75
2024/01/05 10:25:26;;;;;;;;;16.00;14.00;;;;;18.48;50.79;101151.63;146601;650;48010;-75
2024/01/05 10:28:39;;;;;;;;;16.00;13.00;;;;;17.00;50.73;100867.03;146603;662;46016;-75
2024/01/05 10:31:33;;;;;;;;;12.75;12.00;;;;;18.69;47.23;101133.75;146605;660;47010;-76
2024/01/05 10:34:47;;;;;;;;;3.67;1.00;;;;;18.86;50.22;101129.84;146605;598;47014;-74
2024/01/05 10:37:41;;;;;;;;;13.00;11.00;;;;;19.11;47.74;101120.78;146609;622;46020;-73
2024/01/05 10:40:36;;;;;;;;;9.00;9.00;;;;;19.38;46.70;101120.53;146601;701;47013;-73
2024/01/05 10:43:35;;;;;;;;;14.25;12.50;;;;;19.65;49.11;101132.50;146618;565;46010;-71
2024/01/05 10:46:29;;;;;;;;;12.67;11.67;;;;;19.82;48.88;101125.84;146614;600;47012;-76
2024/01/05 10:49:30;;;;;;;;;10.67;9.67;;;;;19.92;50.66;101124.28;146611;570;48010;-72
2024/01/05 10:52:26;;;;;;;;;8.00;8.00;;;;;19.91;47.89;101127.78;146616;592;46016;-73
2024/01/05 10:55:21;;;;;;;;;8.33;8.00;;;;;19.91;48.81;101127.78;146623;581;46010;-75
2024/01/05 10:58:18;;;;;;;;;13.75;11.75;;;;;19.94;48.55;101126.97;146614;595;47023;-78
2024/01/05 11:01:23;;;;;;;;;6.33;5.00;;;;;19.92;49.85;101129.53;146619;580;46010;-75
2024/01/05 11:04:17;;;;;;;;;10.00;7.00;;;;;19.91;48.72;101132.16;146613;594;46012;-77
2024/01/05 11:07:25;;;;;;;;;11.67;9.00;;;;;19.90;49.32;101131.25;146618;626;47010;-75
2024/01/05 11:10:55;;;;;;;;;9.00;7.33;;;;;19.86;49.64;101139.06;146616;631;47017;-76
2024/01/05 11:14:40;;;;;;;;;4.00;4.00;;;;;19.83;50.30;101126.72;146620;586;47010;-79
2024/01/05 11:18:19;;;;;;;;;10.00;7.67;;;;;19.91;49.45;101113.75;146619;641;45922;-78
2024/01/05 11:21:54;;;;;;;;;17.00;14.33;;;;;18.74;48.56;100889.62;146616;569;46012;-79
2024/01/05 11:24:57;;;;;;;;;15.33;15.00;;;;;19.74;47.43;101090.59;146613;662;47013;-77
2024/01/05 11:28:02;;;;;;;;;9.33;9.00;;;;;19.66;46.93;101091.28;146617;595;46020;-77
2024/01/05 11:31:00;;;;;;;;;11.33;10.33;;;;;19.66;47.18;101081.69;146612;641;47012;-79
2024/01/05 11:34:08;;;;;;;;;18.25;15.50;;;;;19.72;47.55;101073.91;146616;602;46010;-77
2024/01/05 11:37:04;;;;;;;;;28.50;22.50;;;;;19.77;44.56;101066.09;146611;578;46016;-79
2024/01/05 11:39:56;;;;;;;;;15.00;12.67;;;;;19.81;45.67;101066.19;146612;600;46021;-78
2024/01/05 11:43:00;;;;;;;;;23.50;19.50;;;;;19.96;46.85;101054.16;146603;639;47014;-79
2024/01/05 11:46:01;;;;;;;;;11.67;9.67;;;;;20.21;45.13;101044.94;146606;598;47010;-79
2024/01/05 11:48:57;;;;;;;;;11.00;9.00;;;;;20.39;43.46;101045.25;146609;584;46016;-77
2024/01/05 11:52:05;;;;;;;;;12.00;11.00;;;;;20.48;45.22;101045.41;146600;578;46020;-79
2024/01/05 11:55:18;;;;;;;;;12.67;11.67;;;;;20.47;44.85;101035.75;146603;597;47015;-79
2024/01/05 11:58:20;;;;;;;;;15.00;14.33;;;;;20.37;44.68;101038.19;146608;571;46010;-79
2024/01/05 12:01:16;;;;;;;;;16.00;15.00;;;;;20.37;45.07;101027.66;146602;576;48016;-78
2024/01/05 12:04:09;;;;;;;;;15.00;13.75;;;;;20.46;45.16;101026.03;146609;662;46020;-78
2024/01/05 12:07:19;;;;;;;;;12.67;10.33;;;;;19.83;45.44;100877.63;146694;573;46023;-77
2024/01/05 12:10:20;;;;;;;;;11.67;11.33;;;;;20.93;43.73;101027.63;146619;647;46012;-78
2024/01/05 12:13:17;;;;;;;;;4.00;3.00;;;;;21.20;42.40;101025.38;146620;560;47010;-79
2024/01/05 12:16:13;;;;;;;;;14.33;13.33;;;;;21.42;43.89;101023.91;146619;564;46017;-78
2024/01/05 12:19:09;;;;;;;;;10.67;9.00;;;;;21.75;43.46;101019.87;146618;591;46020;-78
2024/01/05 12:22:02;;;;;;;;;9.00;7.33;;;;;21.98;42.08;101017.44;146616;668;47030;-75
2024/01/05 12:24:57;;;;;;;;;17.25;16.50;;;;;21.71;43.56;101027.72;146623;564;46010;-78
2024/01/05 12:27:49;;;;;;;;;16.00;11.33;;;;;21.22;43.87;101021.00;146613;593;47014;-80
2024/01/05 12:30:42;;;;;;;;;15.75;14.75;;;;;20.72;44.74;101018.59;146617;574;46021;-79
2024/01/05 12:33:39;;;;;;;;;16.50;13.75;;;;;20.29;45.82;101027.53;146609;674;47012;-78
2024/01/05 12:36:44;;;;;;;;;;;;;;;;;;;;;
2024/01/05 12:39:48;;;;;;;;;16.50;15.25;;;;;19.64;46.87;101025.50;146608;595;48026;-79
2024/01/05 12:42:43;;;;;;;;;27.00;24.00;;;;;19.34;46.78;101029.25;146619;630;46010;-78
2024/01/05 12:45:50;;;;;;;;;16.00;16.00;;;;;19.19;48.41;101030.69;146611;651;46016;-78
2024/01/05 12:48:50;;;;;;;;;21.50;18.75;;;;;19.17;50.05;101027.16;146617;582;47020;-84
2024/01/05 12:51:51;;;;;;;;;23.25;21.00;;;;;19.24;49.87;101035.19;146611;641;47013;-79
2024/01/05 12:54:52;;;;;;;;;34.25;29.25;;;;;19.40;49.87;101039.03;146614;616;47010;-78
2024/01/05 12:57:44;;;;;;;;;17.50;14.00;;;;;19.62;49.21;101035.97;146605;706;47012;-79
2024/01/05 13:00:59;;;;;;;;;17.75;15.50;;;;;19.67;49.49;101040.47;146616;699;46021;-81
2024/01/05 13:04:08;;;;;;;;;25.00;22.25;;;;;19.67;49.30;101041.34;146612;595;46016;-78
2024/01/05 13:07:14;;;;;;;;;15.00;14.00;;;;;19.64;49.93;101036.03;146618;622;46014;-77
2024/01/05 13:10:10;;;;;;;;;22.50;19.50;;;;;19.58;50.08;101034.13;146616;634;47012;-78
2024/01/05 13:13:03;;;;;;;;;14.00;13.75;;;;;19.53;49.80;101034.88;146615;574;46021;-79
2024/01/05 13:15:59;;;;;;;;;12.50;11.75;;;;;19.40;48.74;101039.03;146614;720;47012;-77
2024/01/05 13:18:56;;;;;;;;;10.33;9.00;;;;;19.31;50.76;101050.22;146617;580;46020;-80
2024/01/05 13:21:56;;;;;;;;;9.33;9.33;;;;;19.28;49.40;101057.16;146619;608;46013;-80
2024/01/05 13:24:50;;;;;;;;;9.00;9.00;;;;;19.21;49.22;101056.16;146621;583;46020;-79
2024/01/05 13:27:46;;;;;;;;;16.50;14.50;;;;;19.06;49.22;101054.09;146620;649;46016;-77
2024/01/05 13:30:58;;;;;;;;;;;;;;;;;;;;;
2024/01/05 13:33:50;;;;;;;;;19.25;17.25;;;;;18.73;50.09;101048.09;146613;588;46014;-80
2024/01/05 13:36:42;;;;;;;;;23.00;21.25;;;;;18.57;50.43;101049.44;146616;585;47014;-78
2024/01/05 13:39:45;;;;;;;;;15.75;14.75;;;;;18.38;50.80;101048.06;146611;690;46014;-79
2024/01/05 13:42:44;;;;;;;;;18.75;18.00;;;;;18.15;50.25;101048.41;146619;628;46020;-81
2024/01/05 13:45:35;;;;;;;;;10.00;10.00;;;;;17.97;49.93;101037.41;146617;565;46022;-78
2024/01/05 13:48:31;;;;;;;;;14.75;14.00;;;;;17.81;49.91;101028.25;146617;602;46020;-79
2024/01/05 13:51:32;;;;;;;;;10.00;8.00;;;;;17.66;52.44;101031.34;146615;574;46017;-79
2024/01/05 13:54:40;;;;;;;;;10.50;10.50;;;;;17.52;52.80;101030.97;146621;656;47014;-81
2024/01/05 13:57:32;;;;;;;;;16.00;14.50;;;;;17.41;52.02;101032.38;146616;571;47012;-78